sensor_id;sensor_type;location;lat;lon;timestamp;P1;durP1;ratioP1;P2;durP2;ratioP2
18893;SDS011;9579;49.488;8.226;2023-06-19T00:02:02;9.20;;;8.50;;
18893;SDS011;9579;49.488;8.226;2023-06-19T00:04:50;9.30;;;8.50;;
18893;SDS011;9579;49.488;8.226;2023-06-19T00:07:37;9.30;;;8.70;;
18893;SDS011;9579;49.488;8.226;2023-06-19T00:10:24;8.70;;;8.00;;
18893;SDS011;9579;49.488;8.226;2023-06-19T00:13:12;9.32;;;8.60;;
18893;SDS011;9579;49.488;8.226;2023-06-19T00:16:00;8.95;;;8.35;;
18893;SDS011;9579;49.488;8.226;2023-06-19T00:18:47;8.18;;;7.57;;
18893;SDS011;9579;49.488;8.226;2023-06-19T00:21:34;9.30;;;8.50;;
18893;SDS011;9579;49.488;8.226;2023-06-19T00:24:22;8.25;;;7.65;;
18893;SDS011;9579;49.488;8.226;2023-06-19T00:27:09;9.05;;;8.25;;
18893;SDS011;9579;49.488;8.226;2023-06-19T00:29:58;8.98;;;8.27;;
18893;SDS011;9579;49.488;8.226;2023-06-19T00:32:47;9.93;;;9.13;;
18893;SDS011;9579;49.488;8.226;2023-06-19T00:35:35;9.32;;;8.38;;
18893;SDS011;9579;49.488;8.226;2023-06-19T00:38:22;9.18;;;8.40;;
18893;SDS011;9579;49.488;8.226;2023-06-19T00:41:09;9.05;;;8.30;;
18893;SDS011;9579;49.488;8.226;2023-06-19T00:43:56;9.70;;;8.93;;
18893;SDS011;9579;49.488;8.226;2023-06-19T00:46:45;9.07;;;8.38;;
18893;SDS011;9579;49.488;8.226;2023-06-19T00:49:32;9.80;;;9.00;;
18893;SDS011;9579;49.488;8.226;2023-06-19T00:52:19;9.48;;;8.77;;
18893;SDS011;9579;49.488;8.226;2023-06-19T00:55:07;9.35;;;8.65;;
18893;SDS011;9579;49.488;8.226;2023-06-19T00:57:54;9.55;;;8.95;;
18893;SDS011;9579;49.488;8.226;2023-06-19T01:00:41;9.77;;;9.07;;
18893;SDS011;9579;49.488;8.226;2023-06-19T01:03:30;9.63;;;8.70;;
18893;SDS011;9579;49.488;8.226;2023-06-19T01:06:17;9.85;;;9.05;;
18893;SDS011;9579;49.488;8.226;2023-06-19T01:09:09;9.32;;;8.63;;
18893;SDS011;9579;49.488;8.226;2023-06-19T01:12:01;9.38;;;8.57;;
18893;SDS011;9579;49.488;8.226;2023-06-19T01:14:57;9.38;;;8.68;;
18893;SDS011;9579;49.488;8.226;2023-06-19T01:17:45;9.40;;;8.70;;
18893;SDS011;9579;49.488;8.226;2023-06-19T01:20:34;10.23;;;9.43;;
18893;SDS011;9579;49.488;8.226;2023-06-19T01:23:22;10.00;;;9.30;;
18893;SDS011;9579;49.488;8.226;2023-06-19T01:26:10;9.38;;;8.50;;
18893;SDS011;9579;49.488;8.226;2023-06-19T01:28:57;8.82;;;8.23;;
18893;SDS011;9579;49.488;8.226;2023-06-19T01:31:45;8.90;;;8.20;;
18893;SDS011;9579;49.488;8.226;2023-06-19T01:34:38;9.40;;;8.75;;
18893;SDS011;9579;49.488;8.226;2023-06-19T01:37:26;9.07;;;8.38;;
18893;SDS011;9579;49.488;8.226;2023-06-19T01:40:14;8.00;;;7.30;;
18893;SDS011;9579;49.488;8.226;2023-06-19T01:43:06;7.60;;;7.10;;
18893;SDS011;9579;49.488;8.226;2023-06-19T01:45:54;10.75;;;6.03;;
18893;SDS011;9579;49.488;8.226;2023-06-19T01:48:42;5.47;;;4.97;;
18893;SDS011;9579;49.488;8.226;2023-06-19T01:51:29;4.88;;;4.47;;
18893;SDS011;9579;49.488;8.226;2023-06-19T01:54:16;5.18;;;4.60;;
18893;SDS011;9579;49.488;8.226;2023-06-19T01:57:05;4.78;;;4.40;;
18893;SDS011;9579;49.488;8.226;2023-06-19T01:59:53;4.72;;;4.30;;
18893;SDS011;9579;49.488;8.226;2023-06-19T02:02:40;4.90;;;4.45;;
18893;SDS011;9579;49.488;8.226;2023-06-19T02:05:27;4.72;;;4.32;;
18893;SDS011;9579;49.488;8.226;2023-06-19T02:08:14;5.82;;;4.82;;
18893;SDS011;9579;49.488;8.226;2023-06-19T02:11:01;5.00;;;4.50;;
18893;SDS011;9579;49.488;8.226;2023-06-19T02:13:50;5.15;;;4.65;;
18893;SDS011;9579;49.488;8.226;2023-06-19T02:16:37;4.63;;;4.30;;
18893;SDS011;9579;49.488;8.226;2023-06-19T02:19:26;4.80;;;4.47;;
18893;SDS011;9579;49.488;8.226;2023-06-19T02:22:13;4.45;;;4.15;;
18893;SDS011;9579;49.488;8.226;2023-06-19T02:25:00;4.68;;;4.38;;
18893;SDS011;9579;49.488;8.226;2023-06-19T02:27:47;4.93;;;4.57;;
18893;SDS011;9579;49.488;8.226;2023-06-19T02:30:36;5.28;;;4.50;;
18893;SDS011;9579;49.488;8.226;2023-06-19T02:33:23;5.00;;;4.60;;
18893;SDS011;9579;49.488;8.226;2023-06-19T02:36:10;5.38;;;4.90;;
18893;SDS011;9579;49.488;8.226;2023-06-19T02:38:58;5.30;;;4.90;;
18893;SDS011;9579;49.488;8.226;2023-06-19T02:41:45;5.10;;;4.70;;
18893;SDS011;9579;49.488;8.226;2023-06-19T02:44:32;4.68;;;4.38;;
18893;SDS011;9579;49.488;8.226;2023-06-19T02:47:20;4.80;;;4.40;;
18893;SDS011;9579;49.488;8.226;2023-06-19T02:50:08;4.80;;;4.40;;
18893;SDS011;9579;49.488;8.226;2023-06-19T02:52:55;5.25;;;4.88;;
18893;SDS011;9579;49.488;8.226;2023-06-19T02:55:42;4.30;;;4.10;;
18893;SDS011;9579;49.488;8.226;2023-06-19T02:58:29;4.47;;;4.18;;
18893;SDS011;9579;49.488;8.226;2023-06-19T03:01:17;4.57;;;4.18;;
18893;SDS011;9579;49.488;8.226;2023-06-19T03:04:05;4.35;;;4.05;;
18893;SDS011;9579;49.488;8.226;2023-06-19T03:06:52;4.50;;;4.20;;
18893;SDS011;9579;49.488;8.226;2023-06-19T03:09:39;4.55;;;4.20;;
18893;SDS011;9579;49.488;8.226;2023-06-19T03:12:26;4.65;;;4.30;;
18893;SDS011;9579;49.488;8.226;2023-06-19T03:15:14;4.88;;;4.50;;
18893;SDS011;9579;49.488;8.226;2023-06-19T03:18:01;5.25;;;4.75;;
18893;SDS011;9579;49.488;8.226;2023-06-19T03:20:53;5.40;;;5.00;;
18893;SDS011;9579;49.488;8.226;2023-06-19T03:23:40;5.38;;;5.07;;
18893;SDS011;9579;49.488;8.226;2023-06-19T03:26:27;5.30;;;4.90;;
18893;SDS011;9579;49.488;8.226;2023-06-19T03:29:15;4.97;;;4.50;;
18893;SDS011;9579;49.488;8.226;2023-06-19T03:32:02;5.40;;;5.00;;
18893;SDS011;9579;49.488;8.226;2023-06-19T03:34:49;5.00;;;4.70;;
18893;SDS011;9579;49.488;8.226;2023-06-19T03:37:38;5.32;;;4.93;;
18893;SDS011;9579;49.488;8.226;2023-06-19T03:40:25;4.75;;;4.40;;
18893;SDS011;9579;49.488;8.226;2023-06-19T03:43:12;4.88;;;4.47;;
18893;SDS011;9579;49.488;8.226;2023-06-19T03:45:59;4.65;;;4.35;;
18893;SDS011;9579;49.488;8.226;2023-06-19T03:48:46;5.13;;;4.72;;
18893;SDS011;9579;49.488;8.226;2023-06-19T03:51:33;4.60;;;4.30;;
18893;SDS011;9579;49.488;8.226;2023-06-19T03:54:21;4.22;;;3.83;;
18893;SDS011;9579;49.488;8.226;2023-06-19T03:57:08;4.47;;;4.18;;
18893;SDS011;9579;49.488;8.226;2023-06-19T03:59:55;4.60;;;4.30;;
18893;SDS011;9579;49.488;8.226;2023-06-19T04:02:43;4.57;;;4.28;;
18893;SDS011;9579;49.488;8.226;2023-06-19T04:05:31;4.50;;;4.20;;
18893;SDS011;9579;49.488;8.226;2023-06-19T04:08:18;4.85;;;4.47;;
18893;SDS011;9579;49.488;8.226;2023-06-19T04:11:06;4.22;;;3.85;;
18893;SDS011;9579;49.488;8.226;2023-06-19T04:13:53;4.60;;;4.30;;
18893;SDS011;9579;49.488;8.226;2023-06-19T04:16:40;4.28;;;3.97;;
18893;SDS011;9579;49.488;8.226;2023-06-19T04:19:28;4.03;;;3.72;;
18893;SDS011;9579;49.488;8.226;2023-06-19T04:22:15;4.40;;;4.10;;
18893;SDS011;9579;49.488;8.226;2023-06-19T04:25:02;4.13;;;3.85;;
18893;SDS011;9579;49.488;8.226;2023-06-19T04:27:50;4.38;;;4.07;;
18893;SDS011;9579;49.488;8.226;2023-06-19T04:30:37;4.28;;;3.97;;
18893;SDS011;9579;49.488;8.226;2023-06-19T04:33:25;4.30;;;4.00;;
18893;SDS011;9579;49.488;8.226;2023-06-19T04:36:12;4.57;;;4.20;;
18893;SDS011;9579;49.488;8.226;2023-06-19T04:38:59;4.10;;;3.80;;
18893;SDS011;9579;49.488;8.226;2023-06-19T04:41:47;4.45;;;4.15;;
18893;SDS011;9579;49.488;8.226;2023-06-19T04:44:35;4.65;;;4.35;;
18893;SDS011;9579;49.488;8.226;2023-06-19T04:47:22;5.38;;;4.22;;
18893;SDS011;9579;49.488;8.226;2023-06-19T04:50:10;4.25;;;3.95;;
18893;SDS011;9579;49.488;8.226;2023-06-19T04:52:57;4.70;;;4.22;;
18893;SDS011;9579;49.488;8.226;2023-06-19T04:55:44;4.25;;;3.95;;
18893;SDS011;9579;49.488;8.226;2023-06-19T04:58:31;3.83;;;3.63;;
18893;SDS011;9579;49.488;8.226;2023-06-19T05:01:20;3.72;;;3.50;;
18893;SDS011;9579;49.488;8.226;2023-06-19T05:04:12;6.13;;;4.03;;
18893;SDS011;9579;49.488;8.226;2023-06-19T05:07:00;4.40;;;4.00;;
18893;SDS011;9579;49.488;8.226;2023-06-19T05:09:47;3.97;;;3.70;;
18893;SDS011;9579;49.488;8.226;2023-06-19T05:12:34;4.30;;;4.00;;
18893;SDS011;9579;49.488;8.226;2023-06-19T05:15:21;3.90;;;3.60;;
18893;SDS011;9579;49.488;8.226;2023-06-19T05:18:09;4.50;;;4.10;;
18893;SDS011;9579;49.488;8.226;2023-06-19T05:20:56;4.20;;;3.90;;
18893;SDS011;9579;49.488;8.226;2023-06-19T05:23:44;5.00;;;4.00;;
18893;SDS011;9579;49.488;8.226;2023-06-19T05:26:32;4.60;;;4.20;;
18893;SDS011;9579;49.488;8.226;2023-06-19T05:29:19;4.88;;;4.45;;
18893;SDS011;9579;49.488;8.226;2023-06-19T05:32:06;4.57;;;4.18;;
18893;SDS011;9579;49.488;8.226;2023-06-19T05:34:55;4.75;;;4.30;;
18893;SDS011;9579;49.488;8.226;2023-06-19T05:37:42;4.35;;;3.90;;
18893;SDS011;9579;49.488;8.226;2023-06-19T05:40:29;5.75;;;4.70;;
18893;SDS011;9579;49.488;8.226;2023-06-19T05:43:16;4.25;;;3.95;;
18893;SDS011;9579;49.488;8.226;2023-06-19T05:46:04;5.00;;;4.60;;
18893;SDS011;9579;49.488;8.226;2023-06-19T05:48:51;5.10;;;4.70;;
18893;SDS011;9579;49.488;8.226;2023-06-19T05:51:41;4.95;;;4.55;;
18893;SDS011;9579;49.488;8.226;2023-06-19T05:54:28;5.30;;;4.80;;
18893;SDS011;9579;49.488;8.226;2023-06-19T05:57:15;5.05;;;4.65;;
18893;SDS011;9579;49.488;8.226;2023-06-19T06:00:06;5.13;;;4.72;;
18893;SDS011;9579;49.488;8.226;2023-06-19T06:02:57;5.35;;;4.85;;
18893;SDS011;9579;49.488;8.226;2023-06-19T06:05:45;5.70;;;5.20;;
18893;SDS011;9579;49.488;8.226;2023-06-19T06:08:35;5.53;;;4.95;;
18893;SDS011;9579;49.488;8.226;2023-06-19T06:11:22;5.28;;;4.88;;
18893;SDS011;9579;49.488;8.226;2023-06-19T06:14:09;5.90;;;5.20;;
18893;SDS011;9579;49.488;8.226;2023-06-19T06:16:56;5.70;;;5.15;;
18893;SDS011;9579;49.488;8.226;2023-06-19T06:19:43;5.60;;;5.20;;
18893;SDS011;9579;49.488;8.226;2023-06-19T06:22:30;5.50;;;5.15;;
18893;SDS011;9579;49.488;8.226;2023-06-19T06:25:19;5.85;;;5.40;;
18893;SDS011;9579;49.488;8.226;2023-06-19T06:28:06;5.82;;;5.32;;
18893;SDS011;9579;49.488;8.226;2023-06-19T06:30:53;5.75;;;5.35;;
18893;SDS011;9579;49.488;8.226;2023-06-19T06:33:40;5.22;;;4.82;;
18893;SDS011;9579;49.488;8.226;2023-06-19T06:36:27;5.50;;;5.10;;
18893;SDS011;9579;49.488;8.226;2023-06-19T06:39:14;5.50;;;5.00;;
18893;SDS011;9579;49.488;8.226;2023-06-19T06:42:03;5.65;;;5.15;;
18893;SDS011;9579;49.488;8.226;2023-06-19T06:44:50;5.60;;;5.20;;
18893;SDS011;9579;49.488;8.226;2023-06-19T06:47:37;5.57;;;5.07;;
18893;SDS011;9579;49.488;8.226;2023-06-19T06:50:25;5.50;;;5.00;;
18893;SDS011;9579;49.488;8.226;2023-06-19T06:53:12;5.80;;;5.30;;
18893;SDS011;9579;49.488;8.226;2023-06-19T06:55:59;5.38;;;4.97;;
18893;SDS011;9579;49.488;8.226;2023-06-19T06:58:47;5.05;;;4.75;;
18893;SDS011;9579;49.488;8.226;2023-06-19T07:01:34;5.53;;;4.95;;
18893;SDS011;9579;49.488;8.226;2023-06-19T07:04:21;5.30;;;4.68;;
18893;SDS011;9579;49.488;8.226;2023-06-19T07:07:09;5.45;;;4.95;;
18893;SDS011;9579;49.488;8.226;2023-06-19T07:09:56;5.50;;;5.10;;
18893;SDS011;9579;49.488;8.226;2023-06-19T07:12:46;5.68;;;5.25;;
18893;SDS011;9579;49.488;8.226;2023-06-19T07:15:35;5.30;;;4.90;;
18893;SDS011;9579;49.488;8.226;2023-06-19T07:18:22;5.68;;;5.28;;
18893;SDS011;9579;49.488;8.226;2023-06-19T07:21:11;5.40;;;5.00;;
18893;SDS011;9579;49.488;8.226;2023-06-19T07:23:59;6.05;;;5.00;;
18893;SDS011;9579;49.488;8.226;2023-06-19T07:26:46;5.30;;;4.80;;
18893;SDS011;9579;49.488;8.226;2023-06-19T07:29:33;5.70;;;5.30;;
18893;SDS011;9579;49.488;8.226;2023-06-19T07:32:21;5.57;;;5.18;;
18893;SDS011;9579;49.488;8.226;2023-06-19T07:35:08;5.47;;;5.00;;
18893;SDS011;9579;49.488;8.226;2023-06-19T07:37:56;4.95;;;4.60;;
18893;SDS011;9579;49.488;8.226;2023-06-19T07:40:43;5.55;;;5.10;;
18893;SDS011;9579;49.488;8.226;2023-06-19T07:43:30;5.70;;;5.20;;
18893;SDS011;9579;49.488;8.226;2023-06-19T07:46:17;5.60;;;5.05;;
18893;SDS011;9579;49.488;8.226;2023-06-19T07:49:06;5.30;;;4.80;;
18893;SDS011;9579;49.488;8.226;2023-06-19T07:51:53;5.50;;;5.10;;
18893;SDS011;9579;49.488;8.226;2023-06-19T07:54:50;5.70;;;5.30;;
18893;SDS011;9579;49.488;8.226;2023-06-19T07:57:38;5.53;;;5.13;;
18893;SDS011;9579;49.488;8.226;2023-06-19T08:00:25;5.07;;;4.68;;
18893;SDS011;9579;49.488;8.226;2023-06-19T08:03:12;5.55;;;5.03;;
18893;SDS011;9579;49.488;8.226;2023-06-19T08:06:01;4.95;;;4.65;;
18893;SDS011;9579;49.488;8.226;2023-06-19T08:08:48;5.78;;;5.38;;
18893;SDS011;9579;49.488;8.226;2023-06-19T08:11:36;5.13;;;4.82;;
18893;SDS011;9579;49.488;8.226;2023-06-19T08:14:23;5.57;;;5.07;;
18893;SDS011;9579;49.488;8.226;2023-06-19T08:17:10;5.20;;;4.80;;
18893;SDS011;9579;49.488;8.226;2023-06-19T08:19:57;4.97;;;4.63;;
18893;SDS011;9579;49.488;8.226;2023-06-19T08:22:46;5.20;;;4.90;;
18893;SDS011;9579;49.488;8.226;2023-06-19T08:25:33;5.18;;;4.78;;
18893;SDS011;9579;49.488;8.226;2023-06-19T08:28:20;5.32;;;4.93;;
18893;SDS011;9579;49.488;8.226;2023-06-19T08:31:07;5.68;;;4.80;;
18893;SDS011;9579;49.488;8.226;2023-06-19T08:33:54;5.68;;;5.18;;
18893;SDS011;9579;49.488;8.226;2023-06-19T08:36:41;5.10;;;4.65;;
18893;SDS011;9579;49.488;8.226;2023-06-19T08:39:29;5.72;;;5.20;;
18893;SDS011;9579;49.488;8.226;2023-06-19T08:42:16;6.38;;;4.90;;
18893;SDS011;9579;49.488;8.226;2023-06-19T08:45:04;5.40;;;5.00;;
18893;SDS011;9579;49.488;8.226;2023-06-19T08:47:57;4.90;;;4.60;;
18893;SDS011;9579;49.488;8.226;2023-06-19T08:50:45;5.40;;;5.00;;
18893;SDS011;9579;49.488;8.226;2023-06-19T08:53:33;5.32;;;4.70;;
18893;SDS011;9579;49.488;8.226;2023-06-19T08:56:22;6.13;;;5.07;;
18893;SDS011;9579;49.488;8.226;2023-06-19T08:59:10;5.40;;;5.00;;
18893;SDS011;9579;49.488;8.226;2023-06-19T09:01:57;5.25;;;4.70;;
18893;SDS011;9579;49.488;8.226;2023-06-19T09:04:44;5.88;;;4.78;;
18893;SDS011;9579;49.488;8.226;2023-06-19T09:07:31;5.55;;;5.15;;
18893;SDS011;9579;49.488;8.226;2023-06-19T09:10:18;5.43;;;4.90;;
18893;SDS011;9579;49.488;8.226;2023-06-19T09:13:07;4.93;;;4.43;;
18893;SDS011;9579;49.488;8.226;2023-06-19T09:15:57;5.18;;;4.78;;
18893;SDS011;9579;49.488;8.226;2023-06-19T09:18:47;4.93;;;4.63;;
18893;SDS011;9579;49.488;8.226;2023-06-19T09:21:35;5.13;;;4.72;;
18893;SDS011;9579;49.488;8.226;2023-06-19T09:24:23;5.32;;;4.93;;
18893;SDS011;9579;49.488;8.226;2023-06-19T09:27:19;5.10;;;4.57;;
18893;SDS011;9579;49.488;8.226;2023-06-19T09:30:14;5.00;;;4.50;;
18893;SDS011;9579;49.488;8.226;2023-06-19T09:33:06;4.70;;;4.40;;
18893;SDS011;9579;49.488;8.226;2023-06-19T09:35:53;4.50;;;4.13;;
18893;SDS011;9579;49.488;8.226;2023-06-19T09:38:41;5.07;;;4.78;;
18893;SDS011;9579;49.488;8.226;2023-06-19T09:41:29;5.13;;;4.75;;
18893;SDS011;9579;49.488;8.226;2023-06-19T09:44:16;4.68;;;4.38;;
18893;SDS011;9579;49.488;8.226;2023-06-19T09:47:11;4.57;;;4.28;;
18893;SDS011;9579;49.488;8.226;2023-06-19T09:50:04;4.70;;;4.30;;
18893;SDS011;9579;49.488;8.226;2023-06-19T09:52:52;4.90;;;4.40;;
18893;SDS011;9579;49.488;8.226;2023-06-19T09:55:41;4.25;;;3.95;;
18893;SDS011;9579;49.488;8.226;2023-06-19T09:58:28;5.03;;;4.60;;
18893;SDS011;9579;49.488;8.226;2023-06-19T10:01:17;4.75;;;4.35;;
18893;SDS011;9579;49.488;8.226;2023-06-19T10:04:07;4.65;;;4.35;;
18893;SDS011;9579;49.488;8.226;2023-06-19T10:06:56;4.72;;;4.28;;
18893;SDS011;9579;49.488;8.226;2023-06-19T10:09:54;5.28;;;4.88;;
18893;SDS011;9579;49.488;8.226;2023-06-19T10:12:45;4.32;;;4.07;;
18893;SDS011;9579;49.488;8.226;2023-06-19T10:15:33;4.55;;;4.25;;
18893;SDS011;9579;49.488;8.226;2023-06-19T10:18:20;4.70;;;4.30;;
18893;SDS011;9579;49.488;8.226;2023-06-19T10:21:16;4.40;;;4.03;;
18893;SDS011;9579;49.488;8.226;2023-06-19T10:24:04;4.50;;;4.10;;
18893;SDS011;9579;49.488;8.226;2023-06-19T10:26:57;4.30;;;3.90;;
18893;SDS011;9579;49.488;8.226;2023-06-19T10:29:51;3.80;;;3.60;;
18893;SDS011;9579;49.488;8.226;2023-06-19T10:32:39;4.15;;;3.72;;
18893;SDS011;9579;49.488;8.226;2023-06-19T10:35:26;3.70;;;3.50;;
18893;SDS011;9579;49.488;8.226;2023-06-19T10:38:15;3.80;;;3.50;;
18893;SDS011;9579;49.488;8.226;2023-06-19T10:41:02;4.35;;;3.80;;
18893;SDS011;9579;49.488;8.226;2023-06-19T10:43:53;3.90;;;3.70;;
18893;SDS011;9579;49.488;8.226;2023-06-19T10:46:41;4.18;;;3.80;;
18893;SDS011;9579;49.488;8.226;2023-06-19T10:49:28;3.78;;;3.50;;
18893;SDS011;9579;49.488;8.226;2023-06-19T10:52:16;4.32;;;4.00;;
18893;SDS011;9579;49.488;8.226;2023-06-19T10:55:06;4.13;;;3.80;;
18893;SDS011;9579;49.488;8.226;2023-06-19T10:57:54;4.40;;;4.05;;
18893;SDS011;9579;49.488;8.226;2023-06-19T11:00:41;4.50;;;3.78;;
18893;SDS011;9579;49.488;8.226;2023-06-19T11:03:28;4.30;;;4.05;;
18893;SDS011;9579;49.488;8.226;2023-06-19T11:06:19;4.70;;;3.65;;
18893;SDS011;9579;49.488;8.226;2023-06-19T11:09:06;3.80;;;3.60;;
18893;SDS011;9579;49.488;8.226;2023-06-19T11:11:55;4.82;;;3.85;;
18893;SDS011;9579;49.488;8.226;2023-06-19T11:14:43;3.72;;;3.47;;
18893;SDS011;9579;49.488;8.226;2023-06-19T11:17:31;4.18;;;3.88;;
18893;SDS011;9579;49.488;8.226;2023-06-19T11:20:18;3.92;;;3.70;;
18893;SDS011;9579;49.488;8.226;2023-06-19T11:23:05;5.05;;;3.60;;
18893;SDS011;9579;49.488;8.226;2023-06-19T11:25:52;4.28;;;3.80;;
18893;SDS011;9579;49.488;8.226;2023-06-19T11:28:47;4.13;;;3.78;;
18893;SDS011;9579;49.488;8.226;2023-06-19T11:31:34;3.63;;;3.33;;
18893;SDS011;9579;49.488;8.226;2023-06-19T11:34:30;3.65;;;3.45;;
18893;SDS011;9579;49.488;8.226;2023-06-19T11:37:18;3.55;;;3.35;;
18893;SDS011;9579;49.488;8.226;2023-06-19T11:40:06;3.38;;;3.17;;
18893;SDS011;9579;49.488;8.226;2023-06-19T11:42:57;3.60;;;3.30;;
18893;SDS011;9579;49.488;8.226;2023-06-19T11:45:47;3.45;;;3.15;;
18893;SDS011;9579;49.488;8.226;2023-06-19T11:48:36;3.90;;;3.60;;
18893;SDS011;9579;49.488;8.226;2023-06-19T11:51:23;3.67;;;3.47;;
18893;SDS011;9579;49.488;8.226;2023-06-19T11:54:11;3.88;;;3.55;;
18893;SDS011;9579;49.488;8.226;2023-06-19T11:57:00;3.75;;;3.45;;
18893;SDS011;9579;49.488;8.226;2023-06-19T11:59:47;4.30;;;4.00;;
18893;SDS011;9579;49.488;8.226;2023-06-19T12:02:35;5.80;;;4.45;;
18893;SDS011;9579;49.488;8.226;2023-06-19T12:05:22;4.45;;;3.92;;
18893;SDS011;9579;49.488;8.226;2023-06-19T12:08:09;4.60;;;3.95;;
18893;SDS011;9579;49.488;8.226;2023-06-19T12:10:56;3.95;;;3.70;;
18893;SDS011;9579;49.488;8.226;2023-06-19T12:13:43;4.45;;;4.15;;
18893;SDS011;9579;49.488;8.226;2023-06-19T12:16:31;4.32;;;4.03;;
18893;SDS011;9579;49.488;8.226;2023-06-19T12:19:19;4.95;;;4.55;;
18893;SDS011;9579;49.488;8.226;2023-06-19T12:22:06;5.07;;;4.60;;
18893;SDS011;9579;49.488;8.226;2023-06-19T12:24:53;6.07;;;4.90;;
18893;SDS011;9579;49.488;8.226;2023-06-19T12:27:40;5.45;;;5.05;;
18893;SDS011;9579;49.488;8.226;2023-06-19T12:30:27;5.88;;;5.35;;
18893;SDS011;9579;49.488;8.226;2023-06-19T12:33:14;5.80;;;5.30;;
18893;SDS011;9579;49.488;8.226;2023-06-19T12:36:04;5.20;;;4.90;;
18893;SDS011;9579;49.488;8.226;2023-06-19T12:38:52;5.60;;;5.20;;
18893;SDS011;9579;49.488;8.226;2023-06-19T12:41:40;5.43;;;5.03;;
18893;SDS011;9579;49.488;8.226;2023-06-19T12:44:27;4.85;;;4.50;;
18893;SDS011;9579;49.488;8.226;2023-06-19T12:47:14;5.47;;;4.97;;
18893;SDS011;9579;49.488;8.226;2023-06-19T12:50:03;4.85;;;4.55;;
18893;SDS011;9579;49.488;8.226;2023-06-19T12:52:52;4.90;;;4.50;;
18893;SDS011;9579;49.488;8.226;2023-06-19T12:55:39;5.07;;;4.68;;
18893;SDS011;9579;49.488;8.226;2023-06-19T12:58:26;4.45;;;4.15;;
18893;SDS011;9579;49.488;8.226;2023-06-19T13:01:13;4.53;;;4.22;;
18893;SDS011;9579;49.488;8.226;2023-06-19T13:04:00;5.18;;;4.75;;
18893;SDS011;9579;49.488;8.226;2023-06-19T13:06:47;5.22;;;4.80;;
18893;SDS011;9579;49.488;8.226;2023-06-19T13:09:36;5.25;;;4.85;;
18893;SDS011;9579;49.488;8.226;2023-06-19T13:12:23;5.18;;;4.78;;
18893;SDS011;9579;49.488;8.226;2023-06-19T13:15:10;6.55;;;5.97;;
18893;SDS011;9579;49.488;8.226;2023-06-19T13:17:57;5.50;;;5.05;;
18893;SDS011;9579;49.488;8.226;2023-06-19T13:20:44;5.25;;;4.85;;
18893;SDS011;9579;49.488;8.226;2023-06-19T13:23:33;5.22;;;4.72;;
18893;SDS011;9579;49.488;8.226;2023-06-19T13:26:21;5.43;;;4.93;;
18893;SDS011;9579;49.488;8.226;2023-06-19T13:29:08;5.20;;;4.80;;
18893;SDS011;9579;49.488;8.226;2023-06-19T13:31:55;5.03;;;4.65;;
18893;SDS011;9579;49.488;8.226;2023-06-19T13:34:42;5.40;;;4.90;;
18893;SDS011;9579;49.488;8.226;2023-06-19T13:37:29;4.78;;;4.47;;
18893;SDS011;9579;49.488;8.226;2023-06-19T13:40:16;5.15;;;4.65;;
18893;SDS011;9579;49.488;8.226;2023-06-19T13:43:05;5.03;;;4.63;;
18893;SDS011;9579;49.488;8.226;2023-06-19T13:45:52;5.35;;;4.85;;
18893;SDS011;9579;49.488;8.226;2023-06-19T13:48:39;5.22;;;4.82;;
18893;SDS011;9579;49.488;8.226;2023-06-19T13:51:26;5.35;;;4.85;;
18893;SDS011;9579;49.488;8.226;2023-06-19T13:54:13;5.53;;;5.13;;
18893;SDS011;9579;49.488;8.226;2023-06-19T13:57:00;5.35;;;4.78;;
18893;SDS011;9579;49.488;8.226;2023-06-19T13:59:48;5.03;;;4.57;;
18893;SDS011;9579;49.488;8.226;2023-06-19T14:02:36;4.72;;;4.40;;
18893;SDS011;9579;49.488;8.226;2023-06-19T14:05:23;7.72;;;4.88;;
18893;SDS011;9579;49.488;8.226;2023-06-19T14:08:11;5.45;;;4.95;;
18893;SDS011;9579;49.488;8.226;2023-06-19T14:10:58;5.00;;;4.70;;
18893;SDS011;9579;49.488;8.226;2023-06-19T14:13:46;5.22;;;4.93;;
18893;SDS011;9579;49.488;8.226;2023-06-19T14:16:36;5.22;;;4.72;;
18893;SDS011;9579;49.488;8.226;2023-06-19T14:19:23;5.00;;;4.60;;
18893;SDS011;9579;49.488;8.226;2023-06-19T14:22:10;5.60;;;5.20;;
18893;SDS011;9579;49.488;8.226;2023-06-19T14:24:57;5.25;;;4.85;;
18893;SDS011;9579;49.488;8.226;2023-06-19T14:27:47;5.13;;;4.72;;
18893;SDS011;9579;49.488;8.226;2023-06-19T14:30:34;5.97;;;5.50;;
18893;SDS011;9579;49.488;8.226;2023-06-19T14:33:22;4.90;;;4.60;;
18893;SDS011;9579;49.488;8.226;2023-06-19T14:36:09;5.25;;;4.85;;
18893;SDS011;9579;49.488;8.226;2023-06-19T14:38:56;5.18;;;4.80;;
18893;SDS011;9579;49.488;8.226;2023-06-19T14:41:43;5.05;;;4.60;;
18893;SDS011;9579;49.488;8.226;2023-06-19T14:44:30;5.10;;;4.80;;
18893;SDS011;9579;49.488;8.226;2023-06-19T14:47:17;5.35;;;5.00;;
18893;SDS011;9579;49.488;8.226;2023-06-19T14:50:06;5.00;;;4.70;;
18893;SDS011;9579;49.488;8.226;2023-06-19T14:52:53;4.97;;;4.68;;
18893;SDS011;9579;49.488;8.226;2023-06-19T14:55:40;5.22;;;4.93;;
18893;SDS011;9579;49.488;8.226;2023-06-19T14:58:30;4.95;;;4.65;;
18893;SDS011;9579;49.488;8.226;2023-06-19T15:01:17;5.40;;;5.00;;
18893;SDS011;9579;49.488;8.226;2023-06-19T15:04:04;5.10;;;4.80;;
18893;SDS011;9579;49.488;8.226;2023-06-19T15:06:53;5.05;;;4.75;;
18893;SDS011;9579;49.488;8.226;2023-06-19T15:09:41;5.57;;;5.15;;
18893;SDS011;9579;49.488;8.226;2023-06-19T15:12:28;5.15;;;4.75;;
18893;SDS011;9579;49.488;8.226;2023-06-19T15:15:17;5.18;;;4.82;;
18893;SDS011;9579;49.488;8.226;2023-06-19T15:18:04;5.30;;;4.90;;
18893;SDS011;9579;49.488;8.226;2023-06-19T15:20:52;5.43;;;5.03;;
18893;SDS011;9579;49.488;8.226;2023-06-19T15:23:40;5.15;;;4.75;;
18893;SDS011;9579;49.488;8.226;2023-06-19T15:26:27;5.13;;;4.80;;
18893;SDS011;9579;49.488;8.226;2023-06-19T15:29:14;5.63;;;5.22;;
18893;SDS011;9579;49.488;8.226;2023-06-19T15:32:01;5.28;;;4.88;;
18893;SDS011;9579;49.488;8.226;2023-06-19T15:34:49;5.70;;;5.05;;
18893;SDS011;9579;49.488;8.226;2023-06-19T15:37:36;5.75;;;5.35;;
18893;SDS011;9579;49.488;8.226;2023-06-19T15:40:24;5.22;;;4.82;;
18893;SDS011;9579;49.488;8.226;2023-06-19T15:43:12;5.40;;;4.90;;
18893;SDS011;9579;49.488;8.226;2023-06-19T15:46:00;5.40;;;4.90;;
18893;SDS011;9579;49.488;8.226;2023-06-19T15:48:47;5.35;;;4.95;;
18893;SDS011;9579;49.488;8.226;2023-06-19T15:51:34;4.93;;;4.60;;
18893;SDS011;9579;49.488;8.226;2023-06-19T15:54:21;4.80;;;4.50;;
18893;SDS011;9579;49.488;8.226;2023-06-19T15:57:09;4.90;;;4.60;;
18893;SDS011;9579;49.488;8.226;2023-06-19T15:59:57;4.75;;;4.35;;
18893;SDS011;9579;49.488;8.226;2023-06-19T16:02:44;4.60;;;4.20;;
18893;SDS011;9579;49.488;8.226;2023-06-19T16:05:33;4.72;;;4.43;;
18893;SDS011;9579;49.488;8.226;2023-06-19T16:08:20;4.38;;;4.07;;
18893;SDS011;9579;49.488;8.226;2023-06-19T16:11:09;4.57;;;4.28;;
18893;SDS011;9579;49.488;8.226;2023-06-19T16:13:58;4.40;;;4.10;;
18893;SDS011;9579;49.488;8.226;2023-06-19T16:16:45;4.45;;;4.15;;
18893;SDS011;9579;49.488;8.226;2023-06-19T16:19:32;4.45;;;4.10;;
18893;SDS011;9579;49.488;8.226;2023-06-19T16:22:20;4.53;;;4.22;;
18893;SDS011;9579;49.488;8.226;2023-06-19T16:25:08;4.75;;;4.32;;
18893;SDS011;9579;49.488;8.226;2023-06-19T16:27:56;4.63;;;4.22;;
18893;SDS011;9579;49.488;8.226;2023-06-19T16:30:44;4.68;;;4.38;;
18893;SDS011;9579;49.488;8.226;2023-06-19T16:33:32;4.40;;;4.10;;
18893;SDS011;9579;49.488;8.226;2023-06-19T16:36:20;4.90;;;4.50;;
18893;SDS011;9579;49.488;8.226;2023-06-19T16:39:07;4.93;;;4.47;;
18893;SDS011;9579;49.488;8.226;2023-06-19T16:41:57;5.03;;;4.63;;
18893;SDS011;9579;49.488;8.226;2023-06-19T16:44:44;4.63;;;4.32;;
18893;SDS011;9579;49.488;8.226;2023-06-19T16:47:33;4.65;;;4.35;;
18893;SDS011;9579;49.488;8.226;2023-06-19T16:50:20;4.80;;;4.40;;
18893;SDS011;9579;49.488;8.226;2023-06-19T16:53:07;4.28;;;3.97;;
18893;SDS011;9579;49.488;8.226;2023-06-19T16:55:55;4.68;;;4.38;;
18893;SDS011;9579;49.488;8.226;2023-06-19T16:58:43;4.70;;;4.40;;
18893;SDS011;9579;49.488;8.226;2023-06-19T17:01:30;4.53;;;4.22;;
18893;SDS011;9579;49.488;8.226;2023-06-19T17:04:18;4.57;;;4.28;;
18893;SDS011;9579;49.488;8.226;2023-06-19T17:07:05;4.80;;;4.43;;